sensor_id;sensor_type;location;lat;lon;timestamp;pressure;altitude;pressure_sealevel;temperature;humidity
22651;BME280;11492;42.646;23.400;2023-08-30T00:00:58;94113.44;;;21.33;75.18
22651;BME280;11492;42.646;23.400;2023-08-30T00:03:24;94101.88;;;21.24;73.87
22651;BME280;11492;42.646;23.400;2023-08-30T00:05:50;94111.63;;;21.29;73.52
22651;BME280;11492;42.646;23.400;2023-08-30T00:08:16;94116.88;;;21.34;73.37
22651;BME280;11492;42.646;23.400;2023-08-30T00:10:47;94117.91;;;21.33;72.53
22651;BME280;11492;42.646;23.400;2023-08-30T00:13:13;94116.59;;;21.35;73.44
22651;BME280;11492;42.646;23.400;2023-08-30T00:15:39;94097.41;;;21.30;73.86
22651;BME280;11492;42.646;23.400;2023-08-30T00:18:05;94103.44;;;21.40;76.37
22651;BME280;11492;42.646;23.400;2023-08-30T00:20:31;94110.03;;;21.43;76.35
22651;BME280;11492;42.646;23.400;2023-08-30T00:22:56;94108.44;;;21.37;77.57
22651;BME280;11492;42.646;23.400;2023-08-30T00:25:22;94124.75;;;21.34;78.10
22651;BME280;11492;42.646;23.400;2023-08-30T00:27:50;94125.53;;;21.29;78.45
22651;BME280;11492;42.646;23.400;2023-08-30T00:30:17;94110.28;;;21.26;78.38
22651;BME280;11492;42.646;23.400;2023-08-30T00:32:43;94092.16;;;21.20;78.21
22651;BME280;11492;42.646;23.400;2023-08-30T00:35:11;94096.34;;;21.21;77.88
22651;BME280;11492;42.646;23.400;2023-08-30T00:37:36;94100.03;;;21.05;77.65
22651;BME280;11492;42.646;23.400;2023-08-30T00:40:03;94097.69;;;20.84;73.94
22651;BME280;11492;42.646;23.400;2023-08-30T00:42:29;94113.44;;;20.84;71.39
22651;BME280;11492;42.646;23.400;2023-08-30T00:44:55;94121.59;;;20.93;70.92
22651;BME280;11492;42.646;23.400;2023-08-30T00:47:21;94119.47;;;20.95;68.62
22651;BME280;11492;42.646;23.400;2023-08-30T00:49:47;94122.63;;;21.11;69.31
22651;BME280;11492;42.646;23.400;2023-08-30T00:52:14;94132.09;;;21.07;68.89
22651;BME280;11492;42.646;23.400;2023-08-30T00:54:39;94097.16;;;21.02;69.55
22651;BME280;11492;42.646;23.400;2023-08-30T00:57:06;94115.28;;;21.23;71.37
22651;BME280;11492;42.646;23.400;2023-08-30T00:59:33;94115.78;;;21.25;72.80
22651;BME280;11492;42.646;23.400;2023-08-30T01:02:00;94115.53;;;21.17;74.50
22651;BME280;11492;42.646;23.400;2023-08-30T01:04:29;94138.91;;;21.13;74.83
22651;BME280;11492;42.646;23.400;2023-08-30T01:06:56;94144.94;;;21.04;76.80
22651;BME280;11492;42.646;23.400;2023-08-30T01:09:24;94149.41;;;21.03;78.10
22651;BME280;11492;42.646;23.400;2023-08-30T01:12:06;94148.91;;;20.97;78.44
22651;BME280;11492;42.646;23.400;2023-08-30T01:17:23;94148.63;;;20.88;79.10
22651;BME280;11492;42.646;23.400;2023-08-30T01:20:06;94155.69;;;20.83;79.54
22651;BME280;11492;42.646;23.400;2023-08-30T01:25:53;94164.63;;;20.72;80.00
22651;BME280;11492;42.646;23.400;2023-08-30T01:28:23;94148.88;;;20.72;80.77
22651;BME280;11492;42.646;23.400;2023-08-30T01:30:50;94142.56;;;20.78;79.94
22651;BME280;11492;42.646;23.400;2023-08-30T01:33:20;94111.59;;;20.70;80.17
22651;BME280;11492;42.646;23.400;2023-08-30T01:35:47;94116.03;;;20.74;80.13
22651;BME280;11492;42.646;23.400;2023-08-30T01:38:14;94135.19;;;20.75;80.04
22651;BME280;11492;42.646;23.400;2023-08-30T01:40:42;94145.97;;;20.73;81.05
22651;BME280;11492;42.646;23.400;2023-08-30T01:43:10;94164.63;;;20.72;81.57
22651;BME280;11492;42.646;23.400;2023-08-30T01:45:39;94180.34;;;20.67;78.17
22651;BME280;11492;42.646;23.400;2023-08-30T01:48:08;94153.81;;;20.64;80.73
22651;BME280;11492;42.646;23.400;2023-08-30T01:50:34;94155.13;;;20.56;80.67
22651;BME280;11492;42.646;23.400;2023-08-30T01:53:02;94164.53;;;20.48;82.37
22651;BME280;11492;42.646;23.400;2023-08-30T01:55:29;94160.00;;;20.28;80.54
22651;BME280;11492;42.646;23.400;2023-08-30T01:57:55;94133.75;;;20.19;81.72
22651;BME280;11492;42.646;23.400;2023-08-30T02:00:22;94148.47;;;20.24;80.85
22651;BME280;11492;42.646;23.400;2023-08-30T02:02:48;94140.56;;;20.20;81.64
22651;BME280;11492;42.646;23.400;2023-08-30T02:05:14;94150.53;;;20.18;82.95
22651;BME280;11492;42.646;23.400;2023-08-30T02:07:51;94160.47;;;20.11;83.58
22651;BME280;11492;42.646;23.400;2023-08-30T02:10:31;94131.84;;;19.99;84.43
22651;BME280;11492;42.646;23.400;2023-08-30T02:13:00;94137.13;;;20.04;84.80
22651;BME280;11492;42.646;23.400;2023-08-30T02:15:27;94142.06;;;20.01;86.06
22651;BME280;11492;42.646;23.400;2023-08-30T02:17:55;94139.69;;;19.95;85.24
22651;BME280;11492;42.646;23.400;2023-08-30T02:20:21;94128.63;;;19.78;84.47
22651;BME280;11492;42.646;23.400;2023-08-30T02:22:48;94137.00;;;19.80;84.60
22651;BME280;11492;42.646;23.400;2023-08-30T02:25:13;94118.19;;;19.47;83.58
22651;BME280;11492;42.646;23.400;2023-08-30T02:27:39;94121.22;;;19.70;83.08
22651;BME280;11492;42.646;23.400;2023-08-30T02:30:05;94125.34;;;19.66;82.69
22651;BME280;11492;42.646;23.400;2023-08-30T02:32:31;94135.31;;;19.64;82.79
22651;BME280;11492;42.646;23.400;2023-08-30T02:34:57;94138.69;;;19.60;82.67
22651;BME280;11492;42.646;23.400;2023-08-30T02:37:23;94118.44;;;19.46;82.80
22651;BME280;11492;42.646;23.400;2023-08-30T02:39:49;94124.22;;;19.48;82.62
22651;BME280;11492;42.646;23.400;2023-08-30T02:42:15;94123.09;;;19.34;83.47
22651;BME280;11492;42.646;23.400;2023-08-30T02:44:41;94139.63;;;19.39;83.78
22651;BME280;11492;42.646;23.400;2023-08-30T02:47:07;94142.50;;;19.38;84.03
22651;BME280;11492;42.646;23.400;2023-08-30T02:49:33;94126.97;;;19.26;83.58
22651;BME280;11492;42.646;23.400;2023-08-30T02:51:59;94119.94;;;19.32;82.67
22651;BME280;11492;42.646;23.400;2023-08-30T02:54:25;94132.06;;;19.43;82.53
22651;BME280;11492;42.646;23.400;2023-08-30T02:56:52;94126.28;;;19.41;83.41
22651;BME280;11492;42.646;23.400;2023-08-30T02:59:17;94134.16;;;19.41;83.72
22651;BME280;11492;42.646;23.400;2023-08-30T03:01:43;94128.31;;;19.34;84.44
22651;BME280;11492;42.646;23.400;2023-08-30T03:04:10;94126.38;;;19.20;82.56
22651;BME280;11492;42.646;23.400;2023-08-30T03:06:36;94132.47;;;19.30;82.79
22651;BME280;11492;42.646;23.400;2023-08-30T03:09:02;94133.72;;;19.18;82.14
22651;BME280;11492;42.646;23.400;2023-08-30T03:11:28;94130.97;;;19.03;82.55
22651;BME280;11492;42.646;23.400;2023-08-30T03:13:54;94116.38;;;18.81;84.00
22651;BME280;11492;42.646;23.400;2023-08-30T03:16:20;94133.41;;;18.83;84.17
22651;BME280;11492;42.646;23.400;2023-08-30T03:18:48;94118.19;;;18.75;84.17
22651;BME280;11492;42.646;23.400;2023-08-30T03:21:14;94132.78;;;18.72;83.75
22651;BME280;11492;42.646;23.400;2023-08-30T03:23:42;94131.69;;;18.68;84.25
22651;BME280;11492;42.646;23.400;2023-08-30T03:26:14;94132.25;;;18.70;84.24
22651;BME280;11492;42.646;23.400;2023-08-30T03:28:41;94131.91;;;18.61;84.38
22651;BME280;11492;42.646;23.400;2023-08-30T03:31:15;94128.47;;;18.56;84.63
22651;BME280;11492;42.646;23.400;2023-08-30T03:33:42;94130.34;;;18.60;83.79
22651;BME280;11492;42.646;23.400;2023-08-30T03:36:14;94126.84;;;18.50;84.39
22651;BME280;11492;42.646;23.400;2023-08-30T03:38:41;94131.03;;;18.51;84.13
22651;BME280;11492;42.646;23.400;2023-08-30T03:41:07;94121.97;;;18.58;83.88
22651;BME280;11492;42.646;23.400;2023-08-30T03:43:34;94109.91;;;18.57;84.27
22651;BME280;11492;42.646;23.400;2023-08-30T03:46:00;94113.94;;;18.70;83.04
22651;BME280;11492;42.646;23.400;2023-08-30T03:48:27;94107.97;;;18.74;83.24
22651;BME280;11492;42.646;23.400;2023-08-30T03:50:54;94100.41;;;18.77;81.86
22651;BME280;11492;42.646;23.400;2023-08-30T03:53:21;94121.97;;;18.84;81.80
22651;BME280;11492;42.646;23.400;2023-08-30T03:55:47;94117.97;;;18.82;82.28
22651;BME280;11492;42.646;23.400;2023-08-30T03:58:14;94111.28;;;18.65;82.33
22651;BME280;11492;42.646;23.400;2023-08-30T04:00:41;94133.63;;;18.77;83.21
22651;BME280;11492;42.646;23.400;2023-08-30T04:03:08;94133.56;;;18.72;82.70
22651;BME280;11492;42.646;23.400;2023-08-30T04:05:36;94130.91;;;18.67;83.21
22651;BME280;11492;42.646;23.400;2023-08-30T04:08:07;94144.09;;;18.77;82.05
22651;BME280;11492;42.646;23.400;2023-08-30T04:13:03;94149.56;;;18.75;82.57
22651;BME280;11492;42.646;23.400;2023-08-30T04:15:32;94138.81;;;18.72;82.89
22651;BME280;11492;42.646;23.400;2023-08-30T04:17:58;94143.88;;;18.83;83.14
22651;BME280;11492;42.646;23.400;2023-08-30T04:20:24;94149.97;;;18.89;82.40
22651;BME280;11492;42.646;23.400;2023-08-30T04:22:49;94173.38;;;19.00;80.28
22651;BME280;11492;42.646;23.400;2023-08-30T04:25:15;94169.41;;;18.98;79.56
22651;BME280;11492;42.646;23.400;2023-08-30T04:27:41;94169.16;;;18.99;78.53
22651;BME280;11492;42.646;23.400;2023-08-30T04:30:10;94165.28;;;19.01;78.31
22651;BME280;11492;42.646;23.400;2023-08-30T04:32:36;94161.69;;;19.12;78.62
22651;BME280;11492;42.646;23.400;2023-08-30T04:35:02;94180.97;;;19.32;78.57
22651;BME280;11492;42.646;23.400;2023-08-30T04:37:32;94183.66;;;19.42;79.21
22651;BME280;11492;42.646;23.400;2023-08-30T04:39:58;94193.91;;;19.48;78.62
22651;BME280;11492;42.646;23.400;2023-08-30T04:42:23;94191.56;;;19.52;79.24
22651;BME280;11492;42.646;23.400;2023-08-30T04:44:50;94195.78;;;19.53;79.25
22651;BME280;11492;42.646;23.400;2023-08-30T04:47:18;94186.78;;;19.44;79.34
22651;BME280;11492;42.646;23.400;2023-08-30T04:49:44;94204.44;;;19.58;78.97
22651;BME280;11492;42.646;23.400;2023-08-30T04:52:10;94208.25;;;19.41;78.85
22651;BME280;11492;42.646;23.400;2023-08-30T04:54:36;94216.34;;;19.40;79.52
22651;BME280;11492;42.646;23.400;2023-08-30T04:57:02;94199.13;;;19.48;80.08
22651;BME280;11492;42.646;23.400;2023-08-30T04:59:28;94204.72;;;19.57;79.15
22651;BME280;11492;42.646;23.400;2023-08-30T05:01:54;94200.78;;;19.59;78.74
22651;BME280;11492;42.646;23.400;2023-08-30T05:04:19;94202.66;;;19.64;77.73
22651;BME280;11492;42.646;23.400;2023-08-30T05:06:46;94196.09;;;19.66;79.59
22651;BME280;11492;42.646;23.400;2023-08-30T05:09:12;94206.66;;;19.71;79.37
22651;BME280;11492;42.646;23.400;2023-08-30T05:11:38;94192.16;;;19.64;79.96
22651;BME280;11492;42.646;23.400;2023-08-30T05:14:04;94196.44;;;19.70;80.67
22651;BME280;11492;42.646;23.400;2023-08-30T05:16:29;94203.50;;;19.69;81.57
22651;BME280;11492;42.646;23.400;2023-08-30T05:18:55;94204.56;;;19.68;81.15
22651;BME280;11492;42.646;23.400;2023-08-30T05:21:20;94206.06;;;19.64;80.46
22651;BME280;11492;42.646;23.400;2023-08-30T05:23:46;94209.19;;;19.66;78.91
22651;BME280;11492;42.646;23.400;2023-08-30T05:26:12;94209.19;;;19.61;79.57
22651;BME280;11492;42.646;23.400;2023-08-30T05:28:39;94208.94;;;19.63;78.91
22651;BME280;11492;42.646;23.400;2023-08-30T05:31:04;94214.78;;;19.70;79.70
22651;BME280;11492;42.646;23.400;2023-08-30T05:33:31;94216.16;;;19.77;78.81
22651;BME280;11492;42.646;23.400;2023-08-30T05:35:58;94220.34;;;19.78;78.57
22651;BME280;11492;42.646;23.400;2023-08-30T05:38:24;94201.94;;;19.68;79.10
22651;BME280;11492;42.646;23.400;2023-08-30T05:40:49;94218.75;;;19.77;78.96
22651;BME280;11492;42.646;23.400;2023-08-30T05:43:16;94218.75;;;19.82;80.01
22651;BME280;11492;42.646;23.400;2023-08-30T05:45:42;94204.88;;;19.81;80.20
22651;BME280;11492;42.646;23.400;2023-08-30T05:48:08;94198.34;;;19.84;79.67
22651;BME280;11492;42.646;23.400;2023-08-30T05:50:34;94170.72;;;19.67;79.47
22651;BME280;11492;42.646;23.400;2023-08-30T05:53:01;94211.75;;;19.92;79.64
22651;BME280;11492;42.646;23.400;2023-08-30T05:55:28;94215.41;;;19.91;80.17
22651;BME280;11492;42.646;23.400;2023-08-30T05:57:54;94205.94;;;19.85;80.96
22651;BME280;11492;42.646;23.400;2023-08-30T06:00:20;94206.00;;;19.95;80.66
22651;BME280;11492;42.646;23.400;2023-08-30T06:02:46;94214.19;;;20.03;78.46
22651;BME280;11492;42.646;23.400;2023-08-30T06:05:12;94215.03;;;20.14;78.28
22651;BME280;11492;42.646;23.400;2023-08-30T06:07:38;94215.84;;;20.19;78.83
22651;BME280;11492;42.646;23.400;2023-08-30T06:10:03;94211.13;;;20.26;79.32
22651;BME280;11492;42.646;23.400;2023-08-30T06:12:30;94200.13;;;20.24;78.34
22651;BME280;11492;42.646;23.400;2023-08-30T06:14:56;94207.00;;;20.35;77.66
22651;BME280;11492;42.646;23.400;2023-08-30T06:17:22;94200.97;;;20.39;76.23
22651;BME280;11492;42.646;23.400;2023-08-30T06:19:48;94202.84;;;20.48;76.65
22651;BME280;11492;42.646;23.400;2023-08-30T06:22:14;94215.50;;;20.56;75.36
22651;BME280;11492;42.646;23.400;2023-08-30T06:24:40;94217.09;;;20.67;73.73
22651;BME280;11492;42.646;23.400;2023-08-30T06:27:06;94178.75;;;20.51;73.82
22651;BME280;11492;42.646;23.400;2023-08-30T06:29:32;94222.38;;;20.77;74.55
22651;BME280;11492;42.646;23.400;2023-08-30T06:31:58;94213.47;;;20.83;76.78
22651;BME280;11492;42.646;23.400;2023-08-30T06:34:25;94214.53;;;20.87;77.64
22651;BME280;11492;42.646;23.400;2023-08-30T06:36:50;94205.59;;;20.88;77.32
22651;BME280;11492;42.646;23.400;2023-08-30T06:39:18;94207.16;;;20.94;76.32
22651;BME280;11492;42.646;23.400;2023-08-30T06:41:44;94224.00;;;21.07;75.23
22651;BME280;11492;42.646;23.400;2023-08-30T06:44:10;94196.94;;;20.97;75.30
22651;BME280;11492;42.646;23.400;2023-08-30T06:46:37;94206.94;;;21.10;74.94
22651;BME280;11492;42.646;23.400;2023-08-30T06:49:03;94215.13;;;21.28;75.67
22651;BME280;11492;42.646;23.400;2023-08-30T06:51:29;94219.59;;;21.37;76.54
22651;BME280;11492;42.646;23.400;2023-08-30T06:53:55;94219.56;;;21.42;73.25
22651;BME280;11492;42.646;23.400;2023-08-30T06:56:29;94220.34;;;21.52;72.06
22651;BME280;11492;42.646;23.400;2023-08-30T06:58:55;94222.19;;;21.62;72.23
22651;BME280;11492;42.646;23.400;2023-08-30T07:01:21;94214.03;;;21.73;72.31
22651;BME280;11492;42.646;23.400;2023-08-30T07:03:47;94206.94;;;21.78;72.17
22651;BME280;11492;42.646;23.400;2023-08-30T07:06:13;94218.22;;;21.89;71.58
22651;BME280;11492;42.646;23.400;2023-08-30T07:08:39;94209.28;;;21.90;72.69
22651;BME280;11492;42.646;23.400;2023-08-30T07:11:05;94210.31;;;21.94;71.40
22651;BME280;11492;42.646;23.400;2023-08-30T07:13:31;94205.59;;;22.05;71.34
22651;BME280;11492;42.646;23.400;2023-08-30T07:15:57;94206.09;;;22.17;71.67
22651;BME280;11492;42.646;23.400;2023-08-30T07:18:23;94199.75;;;22.23;71.80
22651;BME280;11492;42.646;23.400;2023-08-30T07:20:48;94200.47;;;22.38;70.76
22651;BME280;11492;42.646;23.400;2023-08-30T07:23:15;94215.63;;;22.61;68.56
22651;BME280;11492;42.646;23.400;2023-08-30T07:25:41;94198.00;;;22.61;64.64
22651;BME280;11492;42.646;23.400;2023-08-30T07:28:08;94202.69;;;22.79;64.81
22651;BME280;11492;42.646;23.400;2023-08-30T07:30:33;94205.75;;;22.96;65.73
22651;BME280;11492;42.646;23.400;2023-08-30T07:33:00;94201.97;;;23.06;65.14
22651;BME280;11492;42.646;23.400;2023-08-30T07:35:29;94207.19;;;23.16;63.93
22651;BME280;11492;42.646;23.400;2023-08-30T07:37:56;94215.00;;;23.31;64.13
22651;BME280;11492;42.646;23.400;2023-08-30T07:40:22;94209.09;;;23.44;62.85
22651;BME280;11492;42.646;23.400;2023-08-30T07:42:52;94206.59;;;23.62;62.40
22651;BME280;11492;42.646;23.400;2023-08-30T07:45:18;94204.09;;;23.75;63.59
22651;BME280;11492;42.646;23.400;2023-08-30T07:47:44;94176.84;;;23.56;61.86
22651;BME280;11492;42.646;23.400;2023-08-30T07:50:10;94196.69;;;23.77;60.82
22651;BME280;11492;42.646;23.400;2023-08-30T07:52:36;94190.22;;;23.93;60.51
22651;BME280;11492;42.646;23.400;2023-08-30T07:55:04;94193.88;;;23.97;60.45
22651;BME280;11492;42.646;23.400;2023-08-30T07:57:30;94201.53;;;24.21;59.73
22651;BME280;11492;42.646;23.400;2023-08-30T07:59:56;94213.50;;;24.37;59.41
22651;BME280;11492;42.646;23.400;2023-08-30T08:02:22;94209.06;;;24.55;59.68
22651;BME280;11492;42.646;23.400;2023-08-30T08:04:48;94199.28;;;24.79;60.18
22651;BME280;11492;42.646;23.400;2023-08-30T08:07:15;94209.38;;;24.95;57.95
22651;BME280;11492;42.646;23.400;2023-08-30T08:09:42;94206.22;;;25.11;55.43
22651;BME280;11492;42.646;23.400;2023-08-30T08:12:08;94206.72;;;25.31;54.69
22651;BME280;11492;42.646;23.400;2023-08-30T08:14:33;94204.00;;;25.36;52.50
22651;BME280;11492;42.646;23.400;2023-08-30T08:16:59;94209.78;;;25.38;53.16
22651;BME280;11492;42.646;23.400;2023-08-30T08:19:26;94218.56;;;25.70;52.50
22651;BME280;11492;42.646;23.400;2023-08-30T08:21:52;94216.34;;;26.08;53.66
22651;BME280;11492;42.646;23.400;2023-08-30T08:24:20;94216.56;;;26.25;53.22
22651;BME280;11492;42.646;23.400;2023-08-30T08:26:46;94202.13;;;26.31;51.98
22651;BME280;11492;42.646;23.400;2023-08-30T08:29:12;94212.09;;;26.65;49.74
22651;BME280;11492;42.646;23.400;2023-08-30T08:31:39;94219.13;;;26.83;49.03
22651;BME280;11492;42.646;23.400;2023-08-30T08:34:12;94217.31;;;27.18;48.27
22651;BME280;11492;42.646;23.400;2023-08-30T08:36:42;94216.41;;;27.57;47.52
22651;BME280;11492;42.646;23.400;2023-08-30T08:39:07;94176.34;;;27.67;44.89
22651;BME280;11492;42.646;23.400;2023-08-30T08:41:39;94207.06;;;28.03;44.85
22651;BME280;11492;42.646;23.400;2023-08-30T08:44:05;94215.75;;;28.17;44.49
22651;BME280;11492;42.646;23.400;2023-08-30T08:46:32;94208.94;;;28.32;44.61
22651;BME280;11492;42.646;23.400;2023-08-30T08:49:02;94204.88;;;28.35;43.05
22651;BME280;11492;42.646;23.400;2023-08-30T08:51:31;94213.50;;;28.62;44.45
22651;BME280;11492;42.646;23.400;2023-08-30T08:54:02;94199.16;;;28.80;42.64
22651;BME280;11492;42.646;23.400;2023-08-30T08:56:30;94204.84;;;29.03;42.75
22651;BME280;11492;42.646;23.400;2023-08-30T08:58:59;94198.34;;;29.59;42.29
22651;BME280;11492;42.646;23.400;2023-08-30T09:01:26;94211.97;;;30.08;41.17
22651;BME280;11492;42.646;23.400;2023-08-30T09:03:52;94200.56;;;30.44;40.22
22651;BME280;11492;42.646;23.400;2023-08-30T09:06:19;94201.13;;;30.94;38.88
22651;BME280;11492;42.646;23.400;2023-08-30T09:08:47;94208.47;;;31.06;38.00
22651;BME280;11492;42.646;23.400;2023-08-30T09:11:12;94212.50;;;31.60;36.13
22651;BME280;11492;42.646;23.400;2023-08-30T09:13:39;94190.94;;;31.85;36.14
22651;BME280;11492;42.646;23.400;2023-08-30T09:16:16;94202.91;;;32.19;36.32
22651;BME280;11492;42.646;23.400;2023-08-30T09:19:03;94196.78;;;31.99;35.20
22651;BME280;11492;42.646;23.400;2023-08-30T09:21:29;94208.09;;;31.84;34.54
22651;BME280;11492;42.646;23.400;2023-08-30T09:24:03;94197.31;;;31.52;35.71
22651;BME280;11492;42.646;23.400;2023-08-30T09:29:20;94205.31;;;31.04;36.93
22651;BME280;11492;42.646;23.400;2023-08-30T09:31:52;94213.16;;;30.27;35.73
22651;BME280;11492;42.646;23.400;2023-08-30T09:34:22;94205.06;;;29.73;37.26
22651;BME280;11492;42.646;23.400;2023-08-30T09:36:49;94202.72;;;29.88;37.54
22651;BME280;11492;42.646;23.400;2023-08-30T09:39:15;94206.13;;;30.14;37.49
22651;BME280;11492;42.646;23.400;2023-08-30T09:41:42;94201.28;;;29.99;37.42
22651;BME280;11492;42.646;23.400;2023-08-30T09:44:11;94172.47;;;29.26;38.06
22651;BME280;11492;42.646;23.400;2023-08-30T09:46:49;94204.56;;;29.38;39.32
22651;BME280;11492;42.646;23.400;2023-08-30T09:49:19;94201.47;;;29.78;39.39
22651;BME280;11492;42.646;23.400;2023-08-30T09:51:48;94207.44;;;29.91;37.80
22651;BME280;11492;42.646;23.400;2023-08-30T09:54:15;94201.94;;;29.88;38.70
22651;BME280;11492;42.646;23.400;2023-08-30T09:56:44;94197.13;;;30.35;38.09
22651;BME280;11492;42.646;23.400;2023-08-30T09:59:13;94200.03;;;30.67;36.56
22651;BME280;11492;42.646;23.400;2023-08-30T10:01:43;94189.72;;;30.85;36.92
22651;BME280;11492;42.646;23.400;2023-08-30T10:04:10;94182.38;;;31.11;36.06
22651;BME280;11492;42.646;23.400;2023-08-30T10:06:37;94183.44;;;31.38;36.39
22651;BME280;11492;42.646;23.400;2023-08-30T10:09:04;94184.28;;;31.71;35.67
22651;BME280;11492;42.646;23.400;2023-08-30T10:11:35;94178.31;;;31.74;35.19
22651;BME280;11492;42.646;23.400;2023-08-30T10:14:06;94174.88;;;31.85;34.58
22651;BME280;11492;42.646;23.400;2023-08-30T10:16:55;94169.22;;;32.18;34.21
22651;BME280;11492;42.646;23.400;2023-08-30T10:19:27;94168.16;;;32.31;33.97
22651;BME280;11492;42.646;23.400;2023-08-30T10:22:04;94169.16;;;32.38;33.75
22651;BME280;11492;42.646;23.400;2023-08-30T10:24:53;94165.25;;;32.48;33.56
22651;BME280;11492;42.646;23.400;2023-08-30T10:27:21;94173.34;;;32.71;33.77
22651;BME280;11492;42.646;23.400;2023-08-30T10:29:49;94172.66;;;32.74;34.12
22651;BME280;11492;42.646;23.400;2023-08-30T10:32:21;94170.31;;;32.96;33.49
22651;BME280;11492;42.646;23.400;2023-08-30T10:34:51;94166.19;;;32.99;33.35
22651;BME280;11492;42.646;23.400;2023-08-30T10:37:23;94161.84;;;32.94;33.08
22651;BME280;11492;42.646;23.400;2023-08-30T10:39:50;94159.38;;;32.89;33.21
22651;BME280;11492;42.646;23.400;2023-08-30T10:42:23;94156.31;;;32.44;33.61
22651;BME280;11492;42.646;23.400;2023-08-30T10:44:56;94168.22;;;31.91;33.77
22651;BME280;11492;42.646;23.400;2023-08-30T10:47:34;94150.28;;;31.39;35.71
22651;BME280;11492;42.646;23.400;2023-08-30T10:50:08;94161.16;;;31.14;36.10
22651;BME280;11492;42.646;23.400;2023-08-30T10:52:36;94157.56;;;30.82;35.95
22651;BME280;11492;42.646;23.400;2023-08-30T10:55:14;94161.88;;;30.66;37.15
22651;BME280;11492;42.646;23.400;2023-08-30T10:57:44;94149.06;;;30.52;36.42
22651;BME280;11492;42.646;23.400;2023-08-30T11:00:21;94158.88;;;30.31;36.14
22651;BME280;11492;42.646;23.400;2023-08-30T11:02:51;94161.59;;;30.14;37.24
22651;BME280;11492;42.646;23.400;2023-08-30T11:05:25;94149.88;;;29.99;37.35
22651;BME280;11492;42.646;23.400;2023-08-30T11:07:56;94155.75;;;30.29;38.39
22651;BME280;11492;42.646;23.400;2023-08-30T11:10:22;94157.53;;;30.54;36.63
22651;BME280;11492;42.646;23.400;2023-08-30T11:12:50;94156.22;;;30.96;36.49
22651;BME280;11492;42.646;23.400;2023-08-30T11:15:18;94151.78;;;30.80;35.55
22651;BME280;11492;42.646;23.400;2023-08-30T11:17:48;94151.41;;;31.10;34.91
22651;BME280;11492;42.646;23.400;2023-08-30T11:20:17;94145.03;;;31.31;34.30
22651;BME280;11492;42.646;23.400;2023-08-30T11:22:47;94138.47;;;31.20;34.29
22651;BME280;11492;42.646;23.400;2023-08-30T11:25:18;94143.25;;;31.35;34.00
22651;BME280;11492;42.646;23.400;2023-08-30T11:27:45;94146.63;;;31.64;33.61
22651;BME280;11492;42.646;23.400;2023-08-30T11:30:11;94124.09;;;31.85;32.98
22651;BME280;11492;42.646;23.400;2023-08-30T11:32:39;94127.09;;;32.15;32.95
22651;BME280;11492;42.646;23.400;2023-08-30T11:35:13;94121.13;;;32.42;32.51
22651;BME280;11492;42.646;23.400;2023-08-30T11:37:41;94118.03;;;32.63;32.88
22651;BME280;11492;42.646;23.400;2023-08-30T11:40:13;94118.56;;;32.69;32.81
22651;BME280;11492;42.646;23.400;2023-08-30T11:42:44;94125.81;;;32.80;32.02
22651;BME280;11492;42.646;23.400;2023-08-30T11:45:10;94116.53;;;33.01;32.16
22651;BME280;11492;42.646;23.400;2023-08-30T11:47:40;94112.56;;;32.72;32.03
22651;BME280;11492;42.646;23.400;2023-08-30T11:50:12;94088.09;;;32.85;31.96
22651;BME280;11492;42.646;23.400;2023-08-30T11:52:42;94103.91;;;33.02;31.92
22651;BME280;11492;42.646;23.400;2023-08-30T11:55:11;94096.41;;;33.31;31.87
22651;BME280;11492;42.646;23.400;2023-08-30T11:57:44;94078.03;;;33.06;30.93
22651;BME280;11492;42.646;23.400;2023-08-30T12:00:17;94098.34;;;32.95;31.48
22651;BME280;11492;42.646;23.400;2023-08-30T12:02:44;94090.94;;;32.77;31.08
22651;BME280;11492;42.646;23.400;2023-08-30T12:05:14;94091.91;;;32.84;31.87
22651;BME280;11492;42.646;23.400;2023-08-30T12:07:49;94083.59;;;33.01;30.81
22651;BME280;11492;42.646;23.400;2023-08-30T12:10:20;94084.59;;;33.20;30.88
22651;BME280;11492;42.646;23.400;2023-08-30T12:12:45;94091.81;;;33.31;30.93
22651;BME280;11492;42.646;23.400;2023-08-30T12:15:14;94090.25;;;33.57;30.18
22651;BME280;11492;42.646;23.400;2023-08-30T12:17:45;94075.91;;;33.50;29.69
22651;BME280;11492;42.646;23.400;2023-08-30T12:20:15;94084.44;;;33.67;29.69
22651;BME280;11492;42.646;23.400;2023-08-30T12:22:45;94070.63;;;33.65;29.50
22651;BME280;11492;42.646;23.400;2023-08-30T12:25:20;94075.47;;;33.75;29.71
22651;BME280;11492;42.646;23.400;2023-08-30T12:27:55;94075.50;;;33.90;30.13
22651;BME280;11492;42.646;23.400;2023-08-30T12:30:29;94075.72;;;33.70;29.34
22651;BME280;11492;42.646;23.400;2023-08-30T12:33:01;94069.84;;;33.64;30.14
22651;BME280;11492;42.646;23.400;2023-08-30T12:35:32;94069.50;;;33.81;29.66
22651;BME280;11492;42.646;23.400;2023-08-30T12:38:03;94060.94;;;33.76;28.53
22651;BME280;11492;42.646;23.400;2023-08-30T12:40:30;94066.38;;;33.64;28.56
22651;BME280;11492;42.646;23.400;2023-08-30T12:42:58;94064.72;;;33.48;29.07
22651;BME280;11492;42.646;23.400;2023-08-30T12:45:26;94055.88;;;33.32;28.82
22651;BME280;11492;42.646;23.400;2023-08-30T12:47:55;94057.69;;;33.28;29.33
22651;BME280;11492;42.646;23.400;2023-08-30T12:50:26;94057.16;;;33.38;29.71
22651;BME280;11492;42.646;23.400;2023-08-30T12:52:56;94050.66;;;33.24;30.44
22651;BME280;11492;42.646;23.400;2023-08-30T12:55:29;94042.75;;;33.15;29.96
22651;BME280;11492;42.646;23.400;2023-08-30T12:58:01;94037.19;;;33.09;31.13
22651;BME280;11492;42.646;23.400;2023-08-30T13:00:32;94042.16;;;33.22;30.75
22651;BME280;11492;42.646;23.400;2023-08-30T13:03:06;94041.63;;;33.16;29.50
22651;BME280;11492;42.646;23.400;2023-08-30T13:05:32;94044.06;;;33.21;29.68